TNCA/AUA METAR and TAF weather

Enter ICAO airport designator
Station Type Date Time Source
TNCA METAR 2021/07/30 07:00 UTC NOAA

TNCA 300700Z 09021KT 9999 FEW017 27/24 Q1012 NOSIG


Station Type Date Time Source
TNCA Decoded METAR 2021/07/30 07:00 UTC NOAA

Queen Beatrix Airport, Aruba (TNCA) 12-30N 070-01W 33M
Jul 30, 2021 - 03:00 AM EDT / 2021.07.30 0700 UTC
Wind: from the E (090 degrees) at 24 MPH (21 KT):0
Visibility: greater than 7 mile(s):0
Sky conditions: mostly clear
Temperature: 80 F (27 C)
Dew Point: 75 F (24 C)
Relative Humidity: 83%
Pressure (altimeter): 29.88 in. Hg (1012 hPa)
ob: TNCA 300700Z 09021KT 9999 FEW017 27/24 Q1012 NOSIG
cycle: 7

Station Type Date Time Source
TNCA TAF 2021/07/30 06:07 UTC NOAA

TAF TNCA 300600Z 3006/3106 11014KT 9999 SCT018 PROB30
TEMPO 3006/3012 BKN014
TEMPO 3015/3021 10022G33KT

Example: see airport list